createdAt,value
2018-09-04T00:00:10.326Z,1025.87242883
2018-09-04T00:00:22.751Z,1025.87242883
2018-09-04T00:00:35.202Z,1025.87242883
2018-09-04T00:00:47.704Z,1025.87242883
2018-09-04T00:01:00.154Z,1025.87242883
2018-09-04T00:01:12.583Z,1025.90629271
2018-09-04T00:01:25.044Z,1025.90629271
2018-09-04T00:01:37.464Z,1025.90629271
2018-09-04T00:01:49.873Z,1025.90629271
2018-09-04T00:02:02.311Z,1025.87242883
2018-09-04T00:02:14.756Z,1025.87242883
2018-09-04T00:02:27.187Z,1025.87242883
2018-09-04T00:02:39.670Z,1025.87242883
2018-09-04T00:02:52.076Z,1025.87242883
2018-09-04T00:03:04.773Z,1025.83856495
2018-09-04T00:03:17.168Z,1025.83856495
2018-09-04T00:03:29.587Z,1025.83856495
2018-09-04T00:03:42.006Z,1025.83856495
2018-09-04T00:03:54.424Z,1025.83856495
2018-09-04T00:04:06.870Z,1025.87242883
2018-09-04T00:04:19.284Z,1025.87242883
2018-09-04T00:04:31.705Z,1025.87242883
2018-09-04T00:04:44.282Z,1025.87242883
2018-09-04T00:04:56.691Z,1025.87242883
2018-09-04T00:05:09.123Z,1025.87242883
2018-09-04T00:05:21.582Z,1025.87242883
2018-09-04T00:05:34.018Z,1025.87242883
2018-09-04T00:05:46.459Z,1025.87242883
2018-09-04T00:05:58.886Z,1025.87242883
2018-09-04T00:06:11.302Z,1025.77083719
2018-09-04T00:06:23.725Z,1025.77083719
2018-09-04T00:06:36.135Z,1025.77083719
2018-09-04T00:06:48.541Z,1025.77083719
2018-09-04T00:07:00.932Z,1025.77083719
2018-09-04T00:07:13.350Z,1025.83856495
2018-09-04T00:07:25.796Z,1025.83856495
2018-09-04T00:07:38.200Z,1025.83856495
2018-09-04T00:07:50.578Z,1025.83856495
2018-09-04T00:08:02.990Z,1025.80470107
2018-09-04T00:08:15.386Z,1025.80470107
2018-09-04T00:08:27.786Z,1025.80470107
2018-09-04T00:08:40.202Z,1025.80470107
2018-09-04T00:08:52.600Z,1025.80470107
2018-09-04T00:09:05.005Z,1025.80470107
2018-09-04T00:09:17.403Z,1025.80470107
2018-09-04T00:09:29.810Z,1025.80470107
2018-09-04T00:09:42.199Z,1025.80470107
2018-09-04T00:09:54.651Z,1025.80470107
2018-09-04T00:10:07.066Z,1025.80470107
2018-09-04T00:10:19.463Z,1025.80470107
2018-09-04T00:10:31.878Z,1025.80470107
2018-09-04T00:10:44.288Z,1025.80470107
2018-09-04T00:10:56.696Z,1025.80470107
2018-09-04T00:11:09.110Z,1025.83856495
2018-09-04T00:11:21.543Z,1025.83856495
2018-09-04T00:11:34.077Z,1025.83856495
2018-09-04T00:11:46.596Z,1025.83856495
2018-09-04T00:11:58.993Z,1025.83856495
2018-09-04T00:12:11.540Z,1025.77083719
2018-09-04T00:12:23.940Z,1025.77083719
2018-09-04T00:12:36.356Z,1025.77083719
2018-09-04T00:12:49.030Z,1025.77083719
2018-09-04T00:13:01.444Z,1025.77083719
2018-09-04T00:13:13.857Z,1025.73697331
2018-09-04T00:13:26.270Z,1025.73697331
2018-09-04T00:13:38.729Z,1025.73697331
2018-09-04T00:13:51.277Z,1025.73697331
2018-09-04T00:14:03.712Z,1025.66924554
2018-09-04T00:14:16.161Z,1025.66924554
2018-09-04T00:14:28.593Z,1025.66924554
2018-09-04T00:14:41.020Z,1025.66924554
2018-09-04T00:14:53.424Z,1025.66924554
2018-09-04T00:15:05.845Z,1025.70310942
2018-09-04T00:15:18.253Z,1025.70310942
2018-09-04T00:15:30.645Z,1025.70310942
2018-09-04T00:15:43.043Z,1025.70310942
2018-09-04T00:15:55.453Z,1025.70310942
2018-09-04T00:16:07.854Z,1025.66924554
2018-09-04T00:16:20.243Z,1025.66924554
2018-09-04T00:16:32.620Z,1025.66924554
2018-09-04T00:16:45.025Z,1025.66924554
2018-09-04T00:16:57.430Z,1025.66924554
2018-09-04T00:17:09.828Z,1025.70310942
2018-09-04T00:17:22.252Z,1025.70310942
2018-09-04T00:17:34.659Z,1025.70310942
2018-09-04T00:17:47.093Z,1025.70310942
2018-09-04T00:17:59.504Z,1025.70310942
2018-09-04T00:18:11.915Z,1025.70310942
2018-09-04T00:18:24.331Z,1025.70310942
2018-09-04T00:18:36.758Z,1025.70310942
2018-09-04T00:18:49.182Z,1025.70310942
2018-09-04T00:19:01.586Z,1025.70310942
2018-09-04T00:19:14.007Z,1025.66924554
2018-09-04T00:19:26.411Z,1025.66924554
2018-09-04T00:19:38.810Z,1025.66924554
2018-09-04T00:19:51.261Z,1025.66924554
2018-09-04T00:20:03.979Z,1025.66924554
2018-09-04T00:20:16.417Z,1025.66924554
2018-09-04T00:20:28.828Z,1025.66924554
2018-09-04T00:20:41.315Z,1025.66924554
2018-09-04T00:20:53.719Z,1025.66924554
2018-09-04T00:21:06.106Z,1025.66924554
2018-09-04T00:21:18.681Z,1025.66924554
2018-09-04T00:21:31.110Z,1025.66924554
2018-09-04T00:21:43.697Z,1025.66924554
2018-09-04T00:21:56.122Z,1025.66924554
2018-09-04T00:22:08.529Z,1025.66924554
2018-09-04T00:22:20.950Z,1025.66924554
2018-09-04T00:22:33.355Z,1025.66924554
2018-09-04T00:22:45.770Z,1025.66924554
2018-09-04T00:22:58.300Z,1025.66924554
2018-09-04T00:23:10.690Z,1025.5676539
2018-09-04T00:23:23.091Z,1025.5676539
2018-09-04T00:23:35.488Z,1025.5676539
2018-09-04T00:23:47.968Z,1025.5676539
2018-09-04T00:24:00.376Z,1025.5676539
2018-09-04T00:24:12.829Z,1025.60151778
2018-09-04T00:24:25.267Z,1025.60151778
2018-09-04T00:24:37.668Z,1025.60151778
2018-09-04T00:24:50.088Z,1025.60151778
2018-09-04T00:25:02.656Z,1025.63538166
2018-09-04T00:25:15.066Z,1025.63538166
2018-09-04T00:25:27.480Z,1025.63538166
2018-09-04T00:25:39.930Z,1025.63538166
2018-09-04T00:25:52.327Z,1025.63538166
2018-09-04T00:26:04.726Z,1025.5676539
2018-09-04T00:26:17.180Z,1025.5676539
2018-09-04T00:26:29.598Z,1025.5676539
2018-09-04T00:26:41.994Z,1025.5676539
2018-09-04T00:26:54.421Z,1025.5676539
2018-09-04T00:27:06.819Z,1025.60151778
2018-09-04T00:27:19.240Z,1025.60151778
2018-09-04T00:27:31.645Z,1025.60151778
2018-09-04T00:27:44.064Z,1025.60151778
2018-09-04T00:27:56.470Z,1025.60151778
2018-09-04T00:28:08.893Z,1025.70310942
2018-09-04T00:28:21.278Z,1025.70310942
2018-09-04T00:28:33.841Z,1025.70310942
2018-09-04T00:28:46.236Z,1025.70310942
2018-09-04T00:28:58.645Z,1025.70310942
2018-09-04T00:29:11.052Z,1025.63538166
2018-09-04T00:29:23.451Z,1025.63538166
2018-09-04T00:29:35.861Z,1025.63538166
2018-09-04T00:29:48.266Z,1025.63538166
2018-09-04T00:30:00.669Z,1025.63538166
2018-09-04T00:30:13.088Z,1025.60151778
2018-09-04T00:30:25.489Z,1025.60151778
2018-09-04T00:30:38.047Z,1025.60151778
2018-09-04T00:30:50.476Z,1025.60151778
2018-09-04T00:31:02.907Z,1025.60151778
2018-09-04T00:31:15.472Z,1025.60151778
2018-09-04T00:31:27.873Z,1025.60151778
2018-09-04T00:31:40.291Z,1025.60151778
2018-09-04T00:31:52.692Z,1025.60151778
2018-09-04T00:32:05.085Z,1025.60151778
2018-09-04T00:32:17.493Z,1025.60151778
2018-09-04T00:32:29.889Z,1025.60151778
2018-09-04T00:32:42.294Z,1025.60151778
2018-09-04T00:32:54.714Z,1025.60151778
2018-09-04T00:33:07.113Z,1025.5676539
2018-09-04T00:33:19.521Z,1025.5676539
2018-09-04T00:33:31.923Z,1025.5676539
2018-09-04T00:33:44.343Z,1025.5676539
2018-09-04T00:33:56.769Z,1025.5676539
2018-09-04T00:34:09.201Z,1025.63538166
2018-09-04T00:34:22.014Z,1025.63538166
2018-09-04T00:34:36.153Z,1025.63538166
2018-09-04T00:34:48.613Z,1025.63538166
2018-09-04T00:35:01.065Z,1025.63538166
2018-09-04T00:35:13.563Z,1025.63538166
2018-09-04T00:35:25.979Z,1025.63538166
2018-09-04T00:35:38.436Z,1025.63538166
2018-09-04T00:35:50.844Z,1025.63538166
2018-09-04T00:36:03.277Z,1025.63538166
2018-09-04T00:36:15.716Z,1025.63538166
2018-09-04T00:36:28.127Z,1025.63538166
2018-09-04T00:36:40.533Z,1025.63538166
2018-09-04T00:36:52.930Z,1025.63538166
2018-09-04T00:37:05.343Z,1025.5676539
2018-09-04T00:37:17.737Z,1025.5676539
2018-09-04T00:37:30.118Z,1025.5676539
2018-09-04T00:37:42.542Z,1025.5676539
2018-09-04T00:37:54.992Z,1025.5676539
2018-09-04T00:38:07.396Z,1025.60151778
2018-09-04T00:38:19.807Z,1025.60151778
2018-09-04T00:38:32.211Z,1025.60151778
2018-09-04T00:38:44.621Z,1025.60151778
2018-09-04T00:38:57.015Z,1025.60151778
2018-09-04T00:39:09.416Z,1025.60151778
2018-09-04T00:39:21.833Z,1025.60151778
2018-09-04T00:39:34.234Z,1025.60151778
2018-09-04T00:39:46.632Z,1025.60151778
2018-09-04T00:39:59.024Z,1025.60151778
2018-09-04T00:40:11.415Z,1025.60151778
2018-09-04T00:40:23.846Z,1025.60151778
2018-09-04T00:40:36.239Z,1025.60151778
2018-09-04T00:40:48.642Z,1025.60151778
2018-09-04T00:41:01.052Z,1025.60151778
2018-09-04T00:41:13.464Z,1025.60151778
2018-09-04T00:41:25.906Z,1025.60151778
2018-09-04T00:41:38.331Z,1025.60151778
2018-09-04T00:41:50.746Z,1025.60151778
2018-09-04T00:42:03.165Z,1025.53379002
2018-09-04T00:42:15.590Z,1025.53379002
2018-09-04T00:42:27.990Z,1025.53379002
2018-09-04T00:42:40.415Z,1025.53379002
2018-09-04T00:42:52.826Z,1025.53379002
2018-09-04T00:43:05.216Z,1025.70310942
2018-09-04T00:43:17.618Z,1025.70310942
2018-09-04T00:43:30.043Z,1025.70310942
2018-09-04T00:43:42.457Z,1025.70310942
2018-09-04T00:43:54.856Z,1025.70310942
2018-09-04T00:44:07.261Z,1025.63538166
2018-09-04T00:44:19.660Z,1025.63538166
2018-09-04T00:44:32.061Z,1025.63538166
2018-09-04T00:44:44.465Z,1025.63538166
2018-09-04T00:44:56.916Z,1025.63538166
2018-09-04T00:45:09.351Z,1025.63538166
2018-09-04T00:45:21.769Z,1025.63538166
2018-09-04T00:45:34.188Z,1025.63538166
2018-09-04T00:45:46.591Z,1025.63538166
2018-09-04T00:45:59.038Z,1025.63538166
2018-09-04T00:46:11.453Z,1025.60151778
2018-09-04T00:46:23.912Z,1025.60151778
2018-09-04T00:46:36.461Z,1025.60151778
2018-09-04T00:46:48.881Z,1025.60151778
2018-09-04T00:47:01.305Z,1025.60151778
2018-09-04T00:47:13.697Z,1025.5676539
2018-09-04T00:47:26.149Z,1025.5676539
2018-09-04T00:47:38.568Z,1025.5676539
2018-09-04T00:47:50.959Z,1025.5676539
2018-09-04T00:48:03.441Z,1025.60151778
2018-09-04T00:48:15.868Z,1025.60151778
2018-09-04T00:48:28.288Z,1025.60151778
2018-09-04T00:48:40.682Z,1025.60151778
2018-09-04T00:48:53.147Z,1025.60151778
2018-09-04T00:49:05.749Z,1025.60151778
2018-09-04T00:49:18.325Z,1025.60151778
2018-09-04T00:49:30.757Z,1025.60151778
2018-09-04T00:49:43.152Z,1025.60151778
2018-09-04T00:49:55.545Z,1025.60151778
2018-09-04T00:50:07.952Z,1025.63538166
2018-09-04T00:50:20.332Z,1025.63538166
2018-09-04T00:50:32.730Z,1025.63538166
2018-09-04T00:50:45.127Z,1025.63538166
2018-09-04T00:50:57.523Z,1025.63538166
2018-09-04T00:51:09.931Z,1025.5676539
2018-09-04T00:51:22.343Z,1025.5676539
2018-09-04T00:51:34.751Z,1025.5676539
2018-09-04T00:51:47.162Z,1025.5676539
2018-09-04T00:51:59.584Z,1025.5676539
2018-09-04T00:52:12.004Z,1025.63538166
2018-09-04T00:52:24.436Z,1025.63538166
2018-09-04T00:52:36.888Z,1025.63538166
2018-09-04T00:52:49.297Z,1025.63538166
2018-09-04T00:53:01.694Z,1025.63538166
2018-09-04T00:53:14.146Z,1025.66924554
2018-09-04T00:53:26.546Z,1025.66924554
2018-09-04T00:53:38.981Z,1025.66924554
2018-09-04T00:53:51.394Z,1025.66924554
2018-09-04T00:54:03.802Z,1025.63538166
2018-09-04T00:54:16.256Z,1025.63538166
2018-09-04T00:54:28.662Z,1025.63538166
2018-09-04T00:54:41.055Z,1025.63538166
2018-09-04T00:54:53.452Z,1025.63538166
2018-09-04T00:55:06.034Z,1025.63538166
2018-09-04T00:55:18.436Z,1025.63538166
2018-09-04T00:55:30.833Z,1025.63538166
2018-09-04T00:55:43.227Z,1025.63538166
2018-09-04T00:55:55.624Z,1025.63538166
2018-09-04T00:56:08.057Z,1025.5676539
2018-09-04T00:56:20.463Z,1025.5676539
2018-09-04T00:56:32.853Z,1025.5676539
2018-09-04T00:56:45.243Z,1025.5676539
2018-09-04T00:56:57.629Z,1025.5676539
2018-09-04T00:57:10.045Z,1025.5676539
2018-09-04T00:57:22.447Z,1025.5676539
2018-09-04T00:57:34.869Z,1025.5676539
2018-09-04T00:57:47.255Z,1025.5676539
2018-09-04T00:57:59.665Z,1025.5676539
2018-09-04T00:58:12.091Z,1025.63538166
2018-09-04T00:58:24.496Z,1025.63538166
2018-09-04T00:58:36.893Z,1025.63538166
2018-09-04T00:58:49.329Z,1025.63538166
2018-09-04T00:59:02.589Z,1025.70310942
2018-09-04T00:59:15.800Z,1025.70310942
2018-09-04T00:59:28.210Z,1025.70310942
2018-09-04T00:59:40.603Z,1025.70310942
2018-09-04T00:59:52.995Z,1025.70310942
2018-09-04T01:00:05.438Z,1025.66924554
2018-09-04T01:00:17.857Z,1025.66924554
2018-09-04T01:00:30.373Z,1025.66924554
2018-09-04T01:00:42.801Z,1025.66924554
2018-09-04T01:00:55.225Z,1025.66924554
2018-09-04T01:01:07.645Z,1025.63538166
2018-09-04T01:01:20.068Z,1025.63538166
2018-09-04T01:01:32.501Z,1025.63538166
2018-09-04T01:01:44.925Z,1025.63538166
2018-09-04T01:01:57.337Z,1025.63538166
2018-09-04T01:02:09.755Z,1025.63538166
2018-09-04T01:02:22.142Z,1025.63538166
2018-09-04T01:02:34.539Z,1025.63538166
2018-09-04T01:02:46.953Z,1025.63538166
2018-09-04T01:02:59.530Z,1025.63538166
2018-09-04T01:03:11.918Z,1025.66924554
2018-09-04T01:03:24.329Z,1025.66924554
2018-09-04T01:03:36.840Z,1025.66924554
2018-09-04T01:03:49.244Z,1025.66924554
2018-09-04T01:04:01.664Z,1025.66924554
2018-09-04T01:04:14.079Z,1025.73697331
2018-09-04T01:04:26.638Z,1025.73697331
2018-09-04T01:04:39.072Z,1025.73697331
2018-09-04T01:04:51.581Z,1025.73697331
2018-09-04T01:05:03.996Z,1025.70310942
2018-09-04T01:05:16.403Z,1025.70310942
2018-09-04T01:05:28.834Z,1025.70310942
2018-09-04T01:05:41.260Z,1025.70310942
2018-09-04T01:05:53.707Z,1025.70310942
2018-09-04T01:06:06.125Z,1025.70310942
2018-09-04T01:06:18.526Z,1025.70310942
2018-09-04T01:06:30.937Z,1025.70310942
2018-09-04T01:06:43.390Z,1025.70310942
2018-09-04T01:06:55.794Z,1025.70310942
2018-09-04T01:07:08.189Z,1025.63538166
2018-09-04T01:07:20.587Z,1025.63538166
2018-09-04T01:07:32.982Z,1025.63538166
2018-09-04T01:07:45.564Z,1025.63538166
2018-09-04T01:07:57.993Z,1025.63538166
2018-09-04T01:08:10.395Z,1025.70310942
2018-09-04T01:08:22.792Z,1025.70310942
2018-09-04T01:08:35.188Z,1025.70310942
2018-09-04T01:08:47.582Z,1025.70310942
2018-09-04T01:08:59.988Z,1025.70310942
2018-09-04T01:09:12.399Z,1025.70310942
2018-09-04T01:09:24.821Z,1025.70310942
2018-09-04T01:09:37.240Z,1025.70310942
2018-09-04T01:09:49.649Z,1025.70310942
2018-09-04T01:10:02.052Z,1025.60151778
2018-09-04T01:10:14.466Z,1025.60151778
2018-09-04T01:10:26.885Z,1025.60151778
2018-09-04T01:10:39.295Z,1025.60151778
2018-09-04T01:10:51.723Z,1025.60151778
2018-09-04T01:11:04.155Z,1025.53379002
2018-09-04T01:11:16.560Z,1025.53379002
2018-09-04T01:11:29.003Z,1025.53379002
2018-09-04T01:11:41.902Z,1025.53379002
2018-09-04T01:11:54.322Z,1025.53379002
2018-09-04T01:12:06.913Z,1025.60151778
2018-09-04T01:12:19.318Z,1025.60151778
2018-09-04T01:12:31.715Z,1025.60151778
2018-09-04T01:12:44.105Z,1025.60151778
2018-09-04T01:12:56.496Z,1025.60151778
2018-09-04T01:13:08.924Z,1025.60151778
2018-09-04T01:13:21.346Z,1025.60151778
2018-09-04T01:13:33.761Z,1025.60151778
2018-09-04T01:13:46.312Z,1025.60151778
2018-09-04T01:13:58.734Z,1025.60151778
2018-09-04T01:14:11.196Z,1025.63538166
2018-09-04T01:14:23.658Z,1025.63538166
2018-09-04T01:14:36.072Z,1025.63538166
2018-09-04T01:14:48.488Z,1025.63538166
2018-09-04T01:15:00.915Z,1025.63538166
2018-09-04T01:15:13.305Z,1025.66924554
2018-09-04T01:15:25.720Z,1025.66924554
2018-09-04T01:15:38.172Z,1025.66924554
2018-09-04T01:15:50.599Z,1025.66924554
2018-09-04T01:16:03.011Z,1025.70310942
2018-09-04T01:16:15.408Z,1025.70310942
2018-09-04T01:16:27.798Z,1025.70310942
2018-09-04T01:16:40.216Z,1025.70310942
2018-09-04T01:16:52.630Z,1025.70310942
2018-09-04T01:17:05.117Z,1025.66924554
2018-09-04T01:17:17.515Z,1025.66924554
2018-09-04T01:17:29.920Z,1025.66924554
2018-09-04T01:17:42.321Z,1025.66924554
2018-09-04T01:17:54.729Z,1025.66924554
2018-09-04T01:18:07.128Z,1025.60151778
2018-09-04T01:18:19.522Z,1025.60151778
2018-09-04T01:18:31.928Z,1025.60151778
2018-09-04T01:18:44.331Z,1025.60151778
2018-09-04T01:18:56.743Z,1025.60151778
2018-09-04T01:19:09.152Z,1025.66924554
2018-09-04T01:19:21.562Z,1025.66924554
2018-09-04T01:19:34.045Z,1025.66924554
2018-09-04T01:19:46.513Z,1025.66924554
2018-09-04T01:19:59.019Z,1025.66924554
2018-09-04T01:20:11.435Z,1025.60151778
2018-09-04T01:20:23.841Z,1025.60151778
2018-09-04T01:20:36.252Z,1025.60151778
2018-09-04T01:20:48.764Z,1025.60151778
2018-09-04T01:21:01.153Z,1025.60151778
2018-09-04T01:21:13.630Z,1025.66924554
2018-09-04T01:21:26.026Z,1025.66924554
2018-09-04T01:21:38.443Z,1025.66924554
2018-09-04T01:21:50.959Z,1025.66924554
2018-09-04T01:22:03.348Z,1025.66924554
2018-09-04T01:22:15.756Z,1025.66924554
2018-09-04T01:22:28.179Z,1025.66924554
2018-09-04T01:22:40.593Z,1025.66924554
2018-09-04T01:22:53.153Z,1025.66924554
2018-09-04T01:23:05.556Z,1025.63538166
2018-09-04T01:23:17.971Z,1025.63538166
2018-09-04T01:23:30.380Z,1025.63538166
2018-09-04T01:23:42.957Z,1025.63538166
2018-09-04T01:23:55.363Z,1025.63538166
2018-09-04T01:24:07.756Z,1025.60151778
2018-09-04T01:24:20.157Z,1025.60151778
2018-09-04T01:24:32.580Z,1025.60151778
2018-09-04T01:24:44.993Z,1025.60151778
2018-09-04T01:24:57.760Z,1025.60151778
2018-09-04T01:25:10.161Z,1025.63538166
2018-09-04T01:25:22.577Z,1025.63538166
2018-09-04T01:25:34.971Z,1025.63538166
2018-09-04T01:25:47.371Z,1025.63538166
2018-09-04T01:25:59.753Z,1025.63538166
2018-09-04T01:26:12.161Z,1025.63538166
2018-09-04T01:26:24.563Z,1025.63538166
2018-09-04T01:26:36.970Z,1025.63538166
2018-09-04T01:26:49.397Z,1025.63538166
2018-09-04T01:27:01.817Z,1025.63538166
2018-09-04T01:27:14.221Z,1025.63538166
2018-09-04T01:27:26.645Z,1025.63538166
2018-09-04T01:27:39.050Z,1025.63538166
2018-09-04T01:27:51.458Z,1025.63538166
2018-09-04T01:28:03.857Z,1025.73697331
2018-09-04T01:28:16.328Z,1025.73697331
2018-09-04T01:28:28.734Z,1025.73697331
2018-09-04T01:28:41.150Z,1025.73697331
2018-09-04T01:28:53.569Z,1025.73697331
2018-09-04T01:29:05.986Z,1025.63538166
2018-09-04T01:29:18.418Z,1025.63538166
2018-09-04T01:29:30.836Z,1025.63538166
2018-09-04T01:29:43.236Z,1025.63538166
2018-09-04T01:29:55.737Z,1025.63538166
2018-09-04T01:30:08.135Z,1025.63538166
2018-09-04T01:30:20.560Z,1025.63538166
2018-09-04T01:30:32.976Z,1025.63538166
2018-09-04T01:30:45.413Z,1025.63538166
2018-09-04T01:30:57.854Z,1025.63538166
2018-09-04T01:31:10.261Z,1025.73697331
2018-09-04T01:31:22.827Z,1025.73697331
2018-09-04T01:31:35.240Z,1025.73697331
2018-09-04T01:31:47.656Z,1025.73697331
2018-09-04T01:32:00.046Z,1025.73697331
2018-09-04T01:32:12.515Z,1025.66924554
2018-09-04T01:32:24.930Z,1025.66924554
2018-09-04T01:32:37.356Z,1025.66924554
2018-09-04T01:32:49.767Z,1025.66924554
2018-09-04T01:33:02.195Z,1025.70310942
2018-09-04T01:33:14.607Z,1025.70310942
2018-09-04T01:33:27.020Z,1025.70310942
2018-09-04T01:33:39.472Z,1025.70310942
2018-09-04T01:33:51.878Z,1025.70310942
2018-09-04T01:34:04.304Z,1025.70310942
2018-09-04T01:34:16.720Z,1025.70310942
2018-09-04T01:34:29.156Z,1025.70310942
2018-09-04T01:34:41.574Z,1025.70310942
2018-09-04T01:34:53.996Z,1025.70310942
2018-09-04T01:35:06.416Z,1025.63538166
2018-09-04T01:35:18.824Z,1025.63538166
2018-09-04T01:35:31.226Z,1025.63538166
2018-09-04T01:35:43.620Z,1025.63538166
2018-09-04T01:35:56.034Z,1025.63538166
2018-09-04T01:36:08.437Z,1025.70310942
2018-09-04T01:36:20.929Z,1025.70310942
2018-09-04T01:36:33.336Z,1025.70310942
2018-09-04T01:36:45.752Z,1025.70310942
2018-09-04T01:36:58.155Z,1025.70310942
2018-09-04T01:37:10.610Z,1025.70310942
2018-09-04T01:37:23.022Z,1025.70310942
2018-09-04T01:37:35.436Z,1025.70310942
2018-09-04T01:37:47.897Z,1025.70310942
2018-09-04T01:38:00.307Z,1025.70310942
2018-09-04T01:38:12.716Z,1025.70310942
2018-09-04T01:38:25.128Z,1025.70310942
2018-09-04T01:38:37.545Z,1025.70310942
2018-09-04T01:38:49.994Z,1025.70310942
2018-09-04T01:39:02.408Z,1025.73697331
2018-09-04T01:39:15.013Z,1025.73697331
2018-09-04T01:39:27.433Z,1025.73697331
2018-09-04T01:39:39.863Z,1025.73697331
2018-09-04T01:39:52.264Z,1025.73697331
2018-09-04T01:40:04.743Z,1025.66924554
2018-09-04T01:40:17.151Z,1025.66924554
2018-09-04T01:40:29.574Z,1025.66924554
2018-09-04T01:40:42.019Z,1025.66924554
2018-09-04T01:40:54.445Z,1025.66924554
2018-09-04T01:41:06.900Z,1025.73697331
2018-09-04T01:41:19.384Z,1025.73697331
2018-09-04T01:41:31.809Z,1025.73697331
2018-09-04T01:41:44.241Z,1025.73697331
2018-09-04T01:41:56.722Z,1025.73697331
2018-09-04T01:42:09.166Z,1025.73697331
2018-09-04T01:42:21.602Z,1025.73697331
2018-09-04T01:42:34.047Z,1025.73697331
2018-09-04T01:42:46.455Z,1025.73697331
2018-09-04T01:42:58.887Z,1025.73697331
2018-09-04T01:43:11.293Z,1025.70310942
2018-09-04T01:43:23.715Z,1025.70310942
2018-09-04T01:43:36.120Z,1025.70310942
2018-09-04T01:43:48.533Z,1025.70310942
2018-09-04T01:44:00.945Z,1025.70310942
2018-09-04T01:44:13.475Z,1025.77083719
2018-09-04T01:44:25.936Z,1025.77083719
2018-09-04T01:44:38.362Z,1025.77083719
2018-09-04T01:44:50.788Z,1025.77083719
2018-09-04T01:45:03.203Z,1025.66924554
2018-09-04T01:45:15.624Z,1025.66924554
2018-09-04T01:45:28.043Z,1025.66924554
2018-09-04T01:45:40.449Z,1025.66924554
2018-09-04T01:45:52.852Z,1025.66924554
2018-09-04T01:46:05.262Z,1025.70310942
2018-09-04T01:46:17.672Z,1025.70310942
2018-09-04T01:46:30.063Z,1025.70310942
2018-09-04T01:46:42.469Z,1025.70310942
2018-09-04T01:46:54.880Z,1025.70310942
2018-09-04T01:47:07.282Z,1025.73697331
2018-09-04T01:47:19.712Z,1025.73697331
2018-09-04T01:47:32.126Z,1025.73697331
2018-09-04T01:47:44.580Z,1025.73697331
2018-09-04T01:47:57.006Z,1025.73697331
2018-09-04T01:48:09.688Z,1025.70310942
2018-09-04T01:48:22.111Z,1025.70310942
2018-09-04T01:48:34.512Z,1025.70310942
2018-09-04T01:48:46.917Z,1025.70310942
2018-09-04T01:48:59.331Z,1025.70310942
2018-09-04T01:49:12.158Z,1025.63538166
2018-09-04T01:49:24.636Z,1025.63538166
2018-09-04T01:49:37.043Z,1025.63538166
2018-09-04T01:49:49.465Z,1025.63538166
2018-09-04T01:50:01.864Z,1025.63538166
2018-09-04T01:50:14.283Z,1025.70310942
2018-09-04T01:50:26.700Z,1025.70310942
2018-09-04T01:50:39.158Z,1025.70310942
2018-09-04T01:50:51.571Z,1025.70310942
2018-09-04T01:51:03.964Z,1025.77083719
2018-09-04T01:51:16.360Z,1025.77083719
2018-09-04T01:51:28.769Z,1025.77083719
2018-09-04T01:51:41.172Z,1025.77083719
2018-09-04T01:51:53.610Z,1025.77083719
2018-09-04T01:52:06.026Z,1025.73697331
2018-09-04T01:52:18.445Z,1025.73697331
2018-09-04T01:52:30.861Z,1025.73697331
2018-09-04T01:52:43.283Z,1025.73697331
2018-09-04T01:52:55.688Z,1025.73697331
2018-09-04T01:53:08.153Z,1025.63538166
2018-09-04T01:53:20.567Z,1025.63538166
2018-09-04T01:53:32.976Z,1025.63538166
2018-09-04T01:53:45.375Z,1025.63538166
2018-09-04T01:53:57.787Z,1025.63538166
2018-09-04T01:54:10.205Z,1025.66924554
2018-09-04T01:54:22.664Z,1025.66924554
2018-09-04T01:54:35.078Z,1025.66924554
2018-09-04T01:54:47.496Z,1025.66924554
2018-09-04T01:55:00.015Z,1025.66924554
2018-09-04T01:55:12.421Z,1025.70310942
2018-09-04T01:55:24.828Z,1025.70310942
2018-09-04T01:55:37.233Z,1025.70310942
2018-09-04T01:55:49.650Z,1025.70310942
2018-09-04T01:56:02.063Z,1025.70310942
2018-09-04T01:56:14.515Z,1025.70310942
2018-09-04T01:56:26.995Z,1025.70310942
2018-09-04T01:56:39.467Z,1025.70310942
2018-09-04T01:56:51.891Z,1025.70310942
2018-09-04T01:57:04.316Z,1025.73697331
2018-09-04T01:57:16.735Z,1025.73697331
2018-09-04T01:57:29.128Z,1025.73697331
2018-09-04T01:57:41.535Z,1025.73697331
2018-09-04T01:57:54.094Z,1025.73697331
2018-09-04T01:58:06.508Z,1025.66924554
2018-09-04T01:58:18.921Z,1025.66924554
2018-09-04T01:58:31.322Z,1025.66924554
2018-09-04T01:58:43.778Z,1025.66924554
2018-09-04T01:58:56.246Z,1025.66924554
2018-09-04T01:59:08.652Z,1025.73697331
2018-09-04T01:59:21.059Z,1025.73697331
2018-09-04T01:59:33.470Z,1025.73697331
2018-09-04T01:59:45.873Z,1025.73697331
2018-09-04T01:59:58.286Z,1025.73697331
2018-09-04T02:00:10.683Z,1025.70310942
2018-09-04T02:00:23.097Z,1025.70310942
2018-09-04T02:00:35.502Z,1025.70310942
2018-09-04T02:00:47.941Z,1025.70310942
2018-09-04T02:01:00.489Z,1025.70310942
2018-09-04T02:01:12.914Z,1025.66924554
2018-09-04T02:01:25.335Z,1025.66924554
2018-09-04T02:01:37.769Z,1025.66924554
2018-09-04T02:01:50.197Z,1025.66924554
2018-09-04T02:02:02.596Z,1025.77083719
2018-09-04T02:02:15.019Z,1025.77083719
2018-09-04T02:02:27.500Z,1025.77083719
2018-09-04T02:02:39.937Z,1025.77083719
2018-09-04T02:02:52.431Z,1025.77083719
2018-09-04T02:03:04.929Z,1025.73697331
2018-09-04T02:03:17.334Z,1025.73697331
2018-09-04T02:03:29.747Z,1025.73697331
2018-09-04T02:03:42.147Z,1025.73697331
2018-09-04T02:03:54.565Z,1025.73697331
2018-09-04T02:04:07.090Z,1025.77083719
2018-09-04T02:04:19.489Z,1025.77083719
2018-09-04T02:04:32.101Z,1025.77083719
2018-09-04T02:04:44.643Z,1025.77083719
2018-09-04T02:04:57.241Z,1025.77083719
2018-09-04T02:05:09.652Z,1025.80470107
2018-09-04T02:05:22.046Z,1025.80470107
2018-09-04T02:05:34.451Z,1025.80470107
2018-09-04T02:05:46.853Z,1025.80470107
2018-09-04T02:05:59.280Z,1025.80470107
2018-09-04T02:06:11.686Z,1025.80470107
2018-09-04T02:06:24.069Z,1025.80470107
2018-09-04T02:06:36.524Z,1025.80470107
2018-09-04T02:06:48.938Z,1025.80470107
2018-09-04T02:07:01.329Z,1025.80470107
2018-09-04T02:07:13.733Z,1025.70310942
2018-09-04T02:07:26.155Z,1025.70310942